Time;durP1;ratioP1;P1;durP2;ratioP2;P2;SDS_P1;SDS_P2;PMS_P1;PMS_P2;Temp;Humidity;BMP_temperature;BMP_pressure;BME280_temperature;BME280_humidity;BME280_pressure;Samples;Min_cycle;Max_cycle;Signal;HPM_P1;HPM_P2
2023/12/01 07:23:58;;;;;;;70.05;23.40;;;;;;;0.36;100.00;100356.44;4941287;29;20124;-89
2023/12/01 07:26:27;;;;;;;72.68;24.02;;;;;;;0.42;100.00;100352.59;4893247;29;20036;-89
2023/12/01 07:28:52;;;;;;;65.20;23.08;;;;;;;0.42;100.00;100361.56;4918109;29;20028;-89
2023/12/01 07:31:18;;;;;;;71.13;22.60;;;;;;;0.37;100.00;100350.13;4888896;29;20130;-89
2023/12/01 07:33:43;;;;;;;69.90;22.70;;;;;;;0.43;100.00;100351.69;4916571;29;20102;-89
2023/12/01 07:36:09;;;;;;;67.93;23.52;;;;;;;0.39;100.00;100356.31;4927167;29;20031;-91
2023/12/01 07:38:36;;;;;;;70.18;22.23;;;;;;;0.35;100.00;100341.25;4890017;29;20051;-96
2023/12/01 07:41:02;;;;;;;71.72;21.85;;;;;;;0.36;100.00;100340.28;4897799;29;20119;-91
2023/12/01 07:43:27;;;;;;;65.88;21.90;;;;;;;0.41;100.00;100342.78;4913541;29;20047;-90
2023/12/01 07:45:55;;;;;;;66.82;22.25;;;;;;;0.39;100.00;100350.06;4920012;29;20054;-91
2023/12/01 07:48:20;;;;;;;66.47;21.08;;;;;;;0.46;100.00;100362.28;4916859;29;20173;-88
2023/12/01 07:50:46;;;;;;;77.82;22.85;;;;;;;0.46;100.00;100352.41;4886182;29;20032;-90
2023/12/01 07:53:12;;;;;;;62.55;21.25;;;;;;;0.45;100.00;100355.16;4907682;29;20486;-88
2023/12/01 07:55:40;;;;;;;69.80;22.85;;;;;;;0.50;100.00;100355.84;4904057;29;20114;-89
2023/12/01 07:58:06;;;;;;;65.47;22.05;;;;;;;0.50;100.00;100348.63;4899066;29;20485;-90
2023/12/01 08:00:31;;;;;;;69.63;20.52;;;;;;;0.50;100.00;100348.63;4902122;29;20047;-90
2023/12/01 08:02:57;;;;;;;73.63;21.67;;;;;;;0.51;100.00;100349.50;4916442;29;20459;-89
2023/12/01 08:05:23;;;;;;;66.88;21.70;;;;;;;0.48;100.00;100358.59;4889787;29;20027;-89
2023/12/01 08:07:53;;;;;;;62.53;19.27;;;;;;;0.49;100.00;100354.97;4917679;29;20478;-89
2023/12/01 08:10:20;;;;;;;70.40;21.70;;;;;;;0.60;100.00;100356.28;4918843;29;20032;-92
2023/12/01 08:12:47;;;;;;;64.68;21.35;;;;;;;0.54;100.00;100346.66;4908538;29;20056;-92
2023/12/01 08:15:13;;;;;;;69.90;22.67;;;;;;;0.51;100.00;100361.16;4888142;29;20135;-93
2023/12/01 08:17:39;;;;;;;66.22;21.08;;;;;;;0.62;100.00;100360.63;4882242;29;20490;-93
2023/12/01 08:20:06;;;;;;;68.63;21.52;;;;;;;0.52;100.00;100362.88;4905780;29;20056;-95
2023/12/01 08:22:37;;;;;;;61.17;20.83;;;;;;;0.47;100.00;100354.13;4901006;29;20048;-96
2023/12/01 08:25:08;;;;;;;70.70;19.88;;;;;;;0.50;100.00;100361.22;4893719;29;20024;-93
2023/12/01 08:27:33;;;;;;;72.68;21.98;;;;;;;0.53;100.00;100372.72;4902314;29;20078;-93
2023/12/01 08:29:59;;;;;;;64.30;19.95;;;;;;;0.45;100.00;100356.03;4914851;28;20032;-94
2023/12/01 08:32:24;;;;;;;64.65;20.95;;;;;;;0.52;100.00;100373.66;4915490;29;20012;-96
2023/12/01 09:56:44;;;;;;;45.45;17.00;;;;;;;0.84;100.00;100437.81;4936049;29;20063;-95
2023/12/01 09:59:15;;;;;;;52.92;17.70;;;;;;;0.87;100.00;100441.25;4920112;29;20070;-95
2023/12/01 10:01:41;;;;;;;47.40;17.92;;;;;;;0.78;100.00;100436.25;4933286;29;20028;-96
2023/12/01 10:04:08;;;;;;;47.80;16.02;;;;;;;0.76;100.00;100432.75;4933112;29;20035;-96
2023/12/01 10:06:37;;;;;;;46.75;16.15;;;;;;;0.76;100.00;100429.22;4920895;29;20079;-96
2023/12/01 10:09:03;;;;;;;51.03;17.13;;;;;;;0.79;100.00;100440.72;4938526;29;20504;-95
2023/12/01 10:11:29;;;;;;;48.65;17.88;;;;;;;0.83;100.00;100431.53;4935283;29;20068;-95
2023/12/01 10:13:54;;;;;;;45.75;15.98;;;;;;;0.87;100.00;100435.84;4924694;29;20035;-96
2023/12/01 10:16:23;;;;;;;45.33;15.88;;;;;;;0.95;100.00;100434.59;4934323;29;20032;-96
2023/12/01 10:18:59;;;;;;;46.03;16.60;;;;;;;0.93;100.00;100444.59;4932709;29;20028;-95
2023/12/01 10:21:44;;;;;;;50.88;17.48;;;;;;;0.88;100.00;100442.97;4936487;29;20024;-96
2023/12/01 10:24:13;;;;;;;41.35;16.40;;;;;;;0.78;100.00;100446.16;4914463;29;20061;-94
2023/12/01 10:26:40;;;;;;;50.17;17.67;;;;;;;0.84;100.00;100448.59;4931186;29;20051;-94
2023/12/01 10:29:06;;;;;;;43.92;16.85;;;;;;;0.80;100.00;100455.06;4939204;29;20031;-96
2023/12/01 10:31:32;;;;;;;55.05;17.45;;;;;;;0.75;100.00;100443.59;4908874;29;20147;-96
2023/12/01 10:33:57;;;;;;;50.70;17.13;;;;;;;0.78;100.00;100449.72;4941001;29;20158;-93
2023/12/01 10:36:23;;;;;;;53.28;18.45;;;;;;;0.87;100.00;100446.63;4909086;29;20035;-94
2023/12/01 10:38:49;;;;;;;47.42;18.27;;;;;;;0.85;100.00;100448.53;4904479;29;20032;-93
2023/12/01 10:41:16;;;;;;;52.28;17.90;;;;;;;0.85;100.00;100440.44;4910603;29;20054;-94
2023/12/01 10:43:43;;;;;;;47.30;17.42;;;;;;;0.71;100.00;100432.09;4906992;29;20035;-93
2023/12/01 10:46:12;;;;;;;46.72;16.52;;;;;;;0.79;100.00;100432.63;4922067;29;20421;-94
2023/12/01 10:48:39;;;;;;;48.35;17.02;;;;;;;0.81;100.00;100436.13;4923091;29;20039;-95
2023/12/01 10:53:42;;;;;;;56.50;18.30;;;;;;;0.79;100.00;100434.44;5256830;22;20468;-96
2023/12/01 10:56:12;;;;;;;45.17;16.30;;;;;;;0.72;100.00;100429.34;4929916;28;20074;-95
2023/12/01 10:58:39;;;;;;;51.80;16.00;;;;;;;0.69;100.00;100426.78;4977339;28;20098;-96
2023/12/01 11:01:05;;;;;;;47.72;16.05;;;;;;;0.65;100.00;100435.94;4960223;28;20031;-95
2023/12/01 11:03:34;;;;;;;46.42;16.27;;;;;;;0.69;100.00;100436.69;4928799;28;20029;-95
2023/12/01 11:06:04;;;;;;;48.83;15.23;;;;;;;0.76;100.00;100434.59;4945563;28;20434;-96
2023/12/01 11:09:08;;;;;;;49.92;16.38;;;;;;;0.74;100.00;100429.28;4960996;28;20069;-94
2023/12/01 11:11:50;;;;;;;43.67;15.20;;;;;;;0.78;100.00;100428.19;4971221;28;20031;-96
2023/12/01 11:14:18;;;;;;;46.70;15.45;;;;;;;0.66;100.00;100429.63;4967482;28;20031;-96
2023/12/01 11:16:47;;;;;;;57.88;17.35;;;;;;;0.68;100.00;100432.25;4964184;28;20026;-96
2023/12/01 11:19:13;;;;;;;44.78;16.92;;;;;;;0.70;100.00;100416.88;4930849;29;20086;-96
2023/12/01 11:21:44;;;;;;;45.35;17.02;;;;;;;0.95;100.00;100426.53;4945287;28;20034;-94
2023/12/01 11:26:51;;;;;;;42.88;16.20;;;;;;;0.71;100.00;100429.41;5117649;23;20054;-95
2023/12/01 11:29:18;;;;;;;47.60;14.93;;;;;;;0.61;100.00;100428.94;4945305;29;20035;-96
2023/12/01 11:31:50;;;;;;;50.47;17.63;;;;;;;0.68;100.00;100429.53;4945968;28;20030;-95
2023/12/01 11:34:16;;;;;;;49.00;16.08;;;;;;;0.58;100.00;100433.59;4974477;28;20019;-93
2023/12/01 11:36:49;;;;;;;48.03;17.23;;;;;;;0.64;100.00;100438.69;4923513;29;20029;-91
2023/12/01 11:39:26;;;;;;;42.08;16.33;;;;;;;0.59;100.00;100443.41;4960536;28;20093;-94
2023/12/01 18:33:52;;;;;;;28.27;11.10;;;;;;;-1.34;100.00;100626.59;4947806;28;20056;-88
2023/12/01 18:36:19;;;;;;;33.20;12.10;;;;;;;-1.24;100.00;100632.53;4922886;29;20039;-89
2023/12/01 18:38:44;;;;;;;26.30;10.73;;;;;;;-1.24;100.00;100623.63;4908220;29;20039;-90
2023/12/01 18:41:12;;;;;;;31.85;13.02;;;;;;;-1.17;100.00;100630.53;4911653;29;20085;-91
2023/12/01 18:43:39;;;;;;;34.88;13.48;;;;;;;-1.20;100.00;100631.50;4945686;29;20031;-90
2023/12/01 18:46:06;;;;;;;32.00;11.45;;;;;;;-1.19;100.00;100618.97;4931645;29;20040;-89
2023/12/01 18:48:32;;;;;;;37.67;13.95;;;;;;;-1.15;100.00;100634.03;4918116;29;20063;-91
2023/12/01 18:50:58;;;;;;;34.08;13.38;;;;;;;-1.22;100.00;100632.50;4911568;29;20945;-91
2023/12/01 18:53:23;;;;;;;31.85;13.05;;;;;;;-1.20;100.00;100642.25;4910167;29;20129;-91
2023/12/01 18:55:49;;;;;;;31.42;12.30;;;;;;;-1.26;100.00;100630.84;4919491;29;20059;-95
2023/12/01 18:58:15;;;;;;;33.22;12.75;;;;;;;-1.21;100.00;100626.22;4928435;29;20101;-94
2023/12/01 19:00:41;;;;;;;35.33;12.80;;;;;;;-1.31;100.00;100631.88;4908571;29;20048;-92
2023/12/01 19:03:06;;;;;;;33.47;12.50;;;;;;;-1.32;100.00;100632.78;4925364;29;20033;-92
2023/12/01 19:05:32;;;;;;;35.67;12.68;;;;;;;-1.38;100.00;100637.50;4917297;29;20024;-90
2023/12/01 19:07:57;;;;;;;33.55;13.10;;;;;;;-1.37;100.00;100629.38;4909182;29;20035;-90
2023/12/01 19:10:25;;;;;;;38.53;13.00;;;;;;;-1.40;100.00;100642.91;4937959;29;20389;-85
2023/12/01 19:12:50;;;;;;;39.70;12.07;;;;;;;-1.31;100.00;100644.44;4906149;29;20086;-91
2023/12/01 19:15:16;;;;;;;35.60;13.50;;;;;;;-1.32;100.00;100646.22;4923241;29;20027;-92
2023/12/01 19:17:43;;;;;;;28.33;12.80;;;;;;;-1.21;100.00;100645.00;4906034;29;20498;-95
2023/12/01 19:20:09;;;;;;;35.22;12.70;;;;;;;-1.11;100.00;100651.81;4922513;29;20032;-92
2023/12/01 19:22:34;;;;;;;35.95;12.95;;;;;;;-1.06;100.00;100651.66;4922498;29;20024;-93
2023/12/01 19:25:03;;;;;;;33.30;14.10;;;;;;;-1.10;100.00;100648.19;4902569;29;20049;-91
2023/12/01 19:27:28;;;;;;;32.25;12.63;;;;;;;-1.21;100.00;100645.88;4901692;29;20038;-92
2023/12/01 19:29:54;;;;;;;29.58;12.57;;;;;;;-1.04;100.00;100647.97;4923279;29;20126;-93
2023/12/01 19:32:19;;;;;;;31.98;13.60;;;;;;;-1.16;100.00;100651.09;4937669;29;20051;-92
2023/12/01 19:34:44;;;;;;;30.75;13.38;;;;;;;-1.19;100.00;100644.00;4906316;29;20035;-92
2023/12/01 19:37:10;;;;;;;26.52;11.63;;;;;;;-1.21;100.00;100656.63;4900033;29;20045;-89
2023/12/01 19:39:35;;;;;;;29.40;12.45;;;;;;;-1.28;100.00;100652.38;4905271;29;20034;-90
2023/12/01 19:42:01;;;;;;;28.90;12.43;;;;;;;-1.19;100.00;100649.38;4911166;29;20023;-93
2023/12/01 19:44:26;;;;;;;30.15;13.07;;;;;;;-1.28;100.00;100655.03;4933944;29;20003;-94
2023/12/01 19:46:52;;;;;;;37.60;13.95;;;;;;;-1.35;100.00;100640.94;4913519;29;20069;-92
2023/12/01 19:49:17;;;;;;;33.70;13.27;;;;;;;-1.24;100.00;100663.91;4911806;29;20027;-91
2023/12/01 19:51:43;;;;;;;39.08;13.48;;;;;;;-1.23;100.00;100669.22;4900618;29;20065;-93
2023/12/01 19:54:08;;;;;;;29.30;12.00;;;;;;;-1.23;100.00;100666.53;4892627;29;20062;-91
2023/12/01 19:56:33;;;;;;;31.17;13.07;;;;;;;-1.42;100.00;100654.66;4904145;29;20035;-92
2023/12/01 19:58:59;;;;;;;30.08;12.80;;;;;;;-1.55;100.00;100660.41;4895278;29;20489;-93
2023/12/01 20:01:25;;;;;;;33.45;13.55;;;;;;;-1.60;100.00;100667.72;4906155;29;20036;-94
2023/12/01 20:03:51;;;;;;;28.50;12.43;;;;;;;-1.57;100.00;100674.81;4902828;29;20031;-92
2023/12/01 20:06:16;;;;;;;27.70;11.65;;;;;;;-1.63;100.00;100673.19;4906751;29;20371;-93
2023/12/01 20:08:42;;;;;;;34.13;13.70;;;;;;;-1.76;100.00;100663.78;4924558;29;20101;-92
2023/12/01 20:11:10;;;;;;;34.13;14.27;;;;;;;-1.94;100.00;100660.72;4922304;29;20047;-95
2023/12/01 20:13:36;;;;;;;29.85;13.38;;;;;;;-1.90;100.00;100664.22;4933523;29;20114;-92
2023/12/01 20:16:01;;;;;;;32.00;12.77;;;;;;;-1.87;100.00;100667.69;4906608;29;20031;-92
2023/12/01 20:18:26;;;;;;;32.08;13.80;;;;;;;-2.01;100.00;100674.41;4922929;29;21351;-93
2023/12/01 20:20:52;;;;;;;27.83;13.25;;;;;;;-1.93;100.00;100691.16;4899338;29;20409;-93
2023/12/01 20:23:17;;;;;;;31.50;14.00;;;;;;;-1.94;100.00;100692.94;4906110;29;20034;-93
2023/12/01 20:25:43;;;;;;;34.25;14.85;;;;;;;-1.94;100.00;100689.38;4930811;29;20036;-92
2023/12/01 20:28:08;;;;;;;28.02;13.10;;;;;;;-1.91;100.00;100687.47;4907304;29;20394;-92
2023/12/01 20:30:34;;;;;;;36.58;13.45;;;;;;;-1.81;100.00;100681.84;4911643;29;20042;-89
2023/12/01 20:32:59;;;;;;;32.80;15.38;;;;;;;-1.83;100.00;100681.88;4915494;29;20048;-95
2023/12/01 20:35:25;;;;;;;29.60;13.25;;;;;;;-1.79;100.00;100683.53;4902936;29;20039;-94
2023/12/01 20:37:53;;;;;;;28.85;13.85;;;;;;;-1.81;100.00;100677.34;4904696;29;20032;-94
2023/12/01 20:40:20;;;;;;;32.88;13.43;;;;;;;-1.78;100.00;100682.63;4919154;29;20050;-91
2023/12/01 20:42:46;;;;;;;28.48;13.38;;;;;;;-1.79;100.00;100685.34;4915137;29;20035;-93
2023/12/01 20:45:11;;;;;;;29.15;13.38;;;;;;;-1.83;100.00;100676.50;4917269;28;20118;-92
2023/12/01 20:47:37;;;;;;;30.95;14.43;;;;;;;-1.92;100.00;100684.81;4913530;29;20475;-94
2023/12/01 20:50:05;;;;;;;30.45;14.02;;;;;;;-1.96;100.00;100693.91;4913113;29;20035;-93
2023/12/01 20:52:30;;;;;;;28.33;12.07;;;;;;;-1.89;100.00;100688.28;4911351;29;20469;-93
2023/12/01 20:54:56;;;;;;;28.98;12.63;;;;;;;-1.77;100.00;100688.84;4910241;29;20126;-94
2023/12/01 20:57:21;;;;;;;30.35;13.05;;;;;;;-1.79;100.00;100694.25;4901287;29;20037;-93
2023/12/01 20:59:47;;;;;;;32.08;14.00;;;;;;;-1.81;100.00;100690.75;4909911;29;20087;-93
2023/12/01 21:02:12;;;;;;;32.75;14.32;;;;;;;-1.88;100.00;100691.88;4915754;29;20024;-92
2023/12/01 21:04:37;;;;;;;35.25;14.20;;;;;;;-1.92;100.00;100699.16;4920556;29;20394;-93
2023/12/01 21:07:03;;;;;;;35.33;14.30;;;;;;;-1.94;100.00;100684.00;4917234;29;20035;-92
2023/12/01 21:09:28;;;;;;;26.40;12.95;;;;;;;-1.96;100.00;100693.91;4907071;29;20034;-90
2023/12/01 21:11:54;;;;;;;33.35;14.32;;;;;;;-1.85;100.00;100694.47;4908064;29;20035;-92
2023/12/01 21:14:19;;;;;;;29.45;13.82;;;;;;;-1.88;100.00;100683.81;4904994;29;20032;-90
2023/12/01 21:16:45;;;;;;;30.25;13.80;;;;;;;-1.85;100.00;100689.09;4907828;29;20028;-91
2023/12/01 21:19:11;;;;;;;29.00;14.38;;;;;;;-1.82;100.00;100680.06;4919189;29;20095;-90
2023/12/01 21:21:36;;;;;;;33.97;14.70;;;;;;;-1.77;100.00;100696.91;4928639;29;20028;-91
2023/12/01 21:24:02;;;;;;;29.20;12.60;;;;;;;-1.70;100.00;100703.84;4916292;29;20119;-92
2023/12/01 21:26:27;;;;;;;28.98;13.75;;;;;;;-1.67;100.00;100696.56;4921008;29;20083;-90
2023/12/01 21:28:54;;;;;;;30.90;13.32;;;;;;;-1.67;100.00;100704.63;4923409;29;20032;-89
2023/12/01 21:31:20;;;;;;;30.52;13.68;;;;;;;-1.64;100.00;100701.00;4920192;29;20051;-90
2023/12/01 21:33:46;;;;;;;25.52;12.32;;;;;;;-1.67;100.00;100701.06;4919368;29;20055;-91
2023/12/01 21:36:12;;;;;;;30.20;12.88;;;;;;;-1.62;100.00;100698.22;4924056;29;20035;-92
2023/12/01 21:38:38;;;;;;;32.00;14.10;;;;;;;-1.58;100.00;100689.16;4921351;29;20031;-92
2023/12/01 21:41:03;;;;;;;26.55;13.18;;;;;;;-1.56;100.00;100698.94;4901178;29;20099;-92
2023/12/01 21:43:29;;;;;;;34.88;14.95;;;;;;;-1.56;100.00;100684.63;4888630;29;20030;-92
2023/12/01 21:45:54;;;;;;;32.97;14.35;;;;;;;-1.76;100.00;100672.69;4901507;29;20031;-93
2023/12/01 21:48:20;;;;;;;32.42;13.68;;;;;;;-1.69;100.00;100682.34;4904674;29;20047;-92
2023/12/01 21:50:45;;;;;;;28.67;13.40;;;;;;;-1.65;100.00;100682.25;4908961;29;20043;-92
2023/12/01 21:53:12;;;;;;;35.10;15.18;;;;;;;-1.68;100.00;100685.88;4923342;29;20046;-92
2023/12/01 21:55:37;;;;;;;27.65;13.65;;;;;;;-1.67;100.00;100690.34;4917496;29;20122;-92
2023/12/01 21:58:03;;;;;;;29.50;13.43;;;;;;;-1.76;100.00;100698.66;4902962;29;20170;-91
2023/12/01 22:00:28;;;;;;;32.38;14.73;;;;;;;-1.78;100.00;100693.34;4910854;29;20030;-91
2023/12/01 22:02:55;;;;;;;30.88;13.15;;;;;;;-1.75;100.00;100698.63;4911754;29;20031;-94
2023/12/01 22:05:21;;;;;;;36.60;15.30;;;;;;;-1.66;100.00;100697.44;4924293;29;20118;-95
2023/12/01 22:07:46;;;;;;;34.80;14.98;;;;;;;-1.67;100.00;100695.72;4906702;29;20123;-94
2023/12/01 22:10:12;;;;;;;31.70;13.23;;;;;;;-1.67;100.00;100698.41;4903031;29;20035;-94
2023/12/01 22:12:37;;;;;;;30.90;13.63;;;;;;;-1.62;100.00;100703.59;4905975;29;20035;-93
2023/12/01 22:15:03;;;;;;;34.80;14.80;;;;;;;-1.62;100.00;100707.19;4912148;29;20053;-95
2023/12/01 22:17:29;;;;;;;38.85;14.82;;;;;;;-1.55;100.00;100707.88;4916698;29;20036;-92
2023/12/01 22:19:54;;;;;;;32.15;14.82;;;;;;;-1.54;100.00;100714.97;4908709;29;20043;-93
2023/12/01 22:22:20;;;;;;;29.70;13.32;;;;;;;-1.54;100.00;100714.97;4929041;29;20047;-93
2023/12/01 22:24:47;;;;;;;34.05;14.27;;;;;;;-1.54;100.00;100707.81;4910366;29;20042;-89
2023/12/01 22:27:14;;;;;;;30.83;13.52;;;;;;;-1.48;100.00;100715.69;4924302;29;20489;-89
2023/12/01 22:29:39;;;;;;;31.58;14.15;;;;;;;-1.53;100.00;100728.34;4910687;29;20068;-89
2023/12/01 22:32:05;;;;;;;30.52;14.93;;;;;;;-1.54;100.00;100712.28;4894962;29;20062;-89
2023/12/01 22:34:30;;;;;;;34.97;14.43;;;;;;;-1.57;100.00;100720.47;4902394;29;20046;-90
2023/12/01 22:36:56;;;;;;;33.33;14.27;;;;;;;-1.65;100.00;100717.13;4908984;29;20043;-90
2023/12/01 22:39:23;;;;;;;40.92;14.90;;;;;;;-1.55;100.00;100713.22;4906274;29;20367;-89
2023/12/01 22:41:49;;;;;;;32.13;14.35;;;;;;;-1.59;100.00;100711.56;4919750;29;20042;-89
2023/12/01 22:44:17;;;;;;;31.00;13.85;;;;;;;-1.55;100.00;100716.78;4923714;29;20031;-90
2023/12/01 22:46:42;;;;;;;34.65;13.80;;;;;;;-1.53;100.00;100720.28;4907554;29;20077;-90
2023/12/01 22:49:08;;;;;;;29.75;13.40;;;;;;;-1.54;100.00;100713.19;4941456;29;20147;-90
2023/12/01 22:51:34;;;;;;;35.30;15.60;;;;;;;-1.49;100.00;100718.41;4932438;29;20031;-90
2023/12/01 22:54:00;;;;;;;30.63;13.30;;;;;;;-1.52;100.00;100729.25;4923751;29;20037;-89
2023/12/01 22:56:25;;;;;;;31.70;14.30;;;;;;;-1.62;100.00;100717.00;4925492;29;20098;-89
2023/12/01 22:58:51;;;;;;;31.13;14.25;;;;;;;-1.58;100.00;100724.94;4920582;29;20043;-88
2023/12/01 23:01:16;;;;;;;35.50;14.93;;;;;;;-1.57;100.00;100728.50;4927115;29;20036;-90
2023/12/01 23:03:43;;;;;;;33.80;15.52;;;;;;;-1.53;100.00;100730.16;4917100;29;20024;-90
2023/12/01 23:06:09;;;;;;;35.75;15.32;;;;;;;-1.65;100.00;100728.75;4933385;29;20106;-89
2023/12/01 23:08:34;;;;;;;32.33;14.15;;;;;;;-1.61;100.00;100737.56;4923800;29;20114;-90
2023/12/01 23:11:00;;;;;;;36.38;15.10;;;;;;;-1.63;100.00;100742.13;4924666;29;20045;-89
2023/12/01 23:13:26;;;;;;;30.88;14.82;;;;;;;-1.55;100.00;100740.94;4906759;29;20030;-91
2023/12/01 23:15:51;;;;;;;33.95;14.75;;;;;;;-1.54;100.00;100734.66;4906291;29;20047;-89
2023/12/01 23:18:16;;;;;;;30.58;14.10;;;;;;;-1.54;100.00;100740.03;4916662;29;20031;-89
2023/12/01 23:20:42;;;;;;;34.50;15.05;;;;;;;-1.50;100.00;100744.34;4907900;29;20032;-90
2023/12/01 23:23:07;;;;;;;34.70;16.02;;;;;;;-1.55;100.00;100749.00;4910779;29;20055;-90
2023/12/01 23:25:33;;;;;;;34.97;15.43;;;;;;;-1.59;100.00;100733.94;4906010;29;20051;-90
2023/12/01 23:27:59;;;;;;;38.17;16.55;;;;;;;-1.57;100.00;100736.56;4923624;29;20035;-90
2023/12/01 23:30:24;;;;;;;34.00;15.48;;;;;;;-1.59;100.00;100728.56;4909401;29;20038;-89
2023/12/01 23:32:50;;;;;;;39.22;16.80;;;;;;;-1.53;100.00;100733.72;4940881;29;20552;-96
2023/12/01 23:35:15;;;;;;;36.92;17.10;;;;;;;-1.61;100.00;100737.56;4923299;29;20040;-95
2023/12/01 23:37:41;;;;;;;31.20;14.40;;;;;;;-1.63;100.00;100740.31;4937321;29;20382;-95
2023/12/01 23:40:07;;;;;;;33.22;15.00;;;;;;;-1.62;100.00;100738.47;4916545;29;20058;-94
2023/12/01 23:42:33;;;;;;;32.45;14.68;;;;;;;-1.73;100.00;100717.38;4943726;29;20011;-95
2023/12/01 23:44:59;;;;;;;30.85;15.48;;;;;;;-1.62;100.00;100730.44;4940372;28;20067;-95
2023/12/01 23:47:24;;;;;;;35.45;15.35;;;;;;;-1.68;100.00;100721.66;4946523;28;20051;-95
2023/12/01 23:49:50;;;;;;;32.58;14.30;;;;;;;-1.67;100.00;100727.91;4925917;29;20087;-96
2023/12/01 23:52:15;;;;;;;32.90;14.68;;;;;;;-1.61;100.00;100737.56;4924630;29;20039;-95
2023/12/01 23:54:41;;;;;;;35.13;15.10;;;;;;;-1.72;100.00;100727.16;4921210;29;20355;-94
2023/12/01 23:57:06;;;;;;;32.30;14.20;;;;;;;-1.66;100.00;100740.38;4928954;29;20035;-95
2023/12/01 23:59:31;;;;;;;33.38;14.77;;;;;;;-1.72;100.00;100717.31;4927727;29;20069;-96
